Airfield :
LOGIN :

Register | Disclaimer

   EN    FR    IT 

 










Legend :    VFR   Marginal VFR   IFR   Intensive IFR   Very Intensive IFR
Visi :
Ceiling :
>= 8 km
>= 3000ft
5 to 8 km
1000 to 3000 ft
1500m to 5 km
500 to 1000 ft
800 to 1500m
200 to 500 ft
< 800m
< 200 ft
Symbols :   Thunderstorms  Fog  Heavy snow  Heavy precipitations  Wind > 20 kt
SIGMETs :     Misc.  Thunderstorms  Icing  Turbulence  Mountain Waves  Volcanic Ashes







- Airport Elevation : 194 ft
- IATA code : ANE
- Download approach charts


LFJR - Angers Marcé

CURRENT METAR :
  • 221900Z AUTO 04006KT 010V070 CAVOK 20/08 Q1027

EXPIRED METARs :
  • 221830Z AUTO 05007KT 020V090 CAVOK 21/08 Q1026
  • 221800Z AUTO 06008KT 020V090 CAVOK 22/09 Q1026
  • 221730Z AUTO 06008KT 360V090 CAVOK 22/08 Q1026
  • 221700Z AUTO 06009KT 020V090 CAVOK 22/08 Q1026 NOSIG
  • 221630Z AUTO 05009KT 350V090 CAVOK 22/08 Q1027 NOSIG

TAF TAF LFJR
Valid from the 22 at 12:00 until the 22 at 21:00 UTC


221100Z 2212/2221 06010KT CAVOK
No reported NOTAMs for that airfield.



MET'MAP, your aeronautical weather chart ! - Copyright ORBIFLY December 2007 - Disclaimer

ORBIFLY MET'MAP TEAM :

Programming & Development : Alexandra Zaïnal
Concept & Development : Baudouin d'Aumeries
Co-Development & Prog : Marc-Olivier Méhu
Technical & hardware support : Manuel Goepfert

Contact : metmap@orbifly.com




SOURCES & CREDITS :

   NOAA